sensor_id;sensor_type;location;lat;lon;timestamp;P1;durP1;ratioP1;P2;durP2;ratioP2
71806;SDS011;59655;42.590;23.364;2023-06-14T00:01:43;34.75;;;15.40;;
71806;SDS011;59655;42.590;23.364;2023-06-14T00:04:11;35.40;;;16.25;;
71806;SDS011;59655;42.590;23.364;2023-06-14T00:06:38;37.42;;;16.40;;
71806;SDS011;59655;42.590;23.364;2023-06-14T00:09:05;34.78;;;15.23;;
71806;SDS011;59655;42.590;23.364;2023-06-14T00:11:42;34.92;;;15.15;;
71806;SDS011;59655;42.590;23.364;2023-06-14T00:14:08;33.38;;;15.13;;
71806;SDS011;59655;42.590;23.364;2023-06-14T00:16:34;35.38;;;15.40;;
71806;SDS011;59655;42.590;23.364;2023-06-14T00:19:00;28.77;;;14.55;;
71806;SDS011;59655;42.590;23.364;2023-06-14T00:21:29;31.83;;;14.85;;
71806;SDS011;59655;42.590;23.364;2023-06-14T00:23:56;29.83;;;13.57;;
71806;SDS011;59655;42.590;23.364;2023-06-14T00:26:22;28.60;;;13.68;;
71806;SDS011;59655;42.590;23.364;2023-06-14T00:28:48;25.48;;;12.80;;
71806;SDS011;59655;42.590;23.364;2023-06-14T00:31:13;24.48;;;12.20;;
71806;SDS011;59655;42.590;23.364;2023-06-14T00:33:39;23.70;;;10.88;;
71806;SDS011;59655;42.590;23.364;2023-06-14T00:36:05;18.52;;;10.18;;
71806;SDS011;59655;42.590;23.364;2023-06-14T00:38:30;23.73;;;11.82;;
71806;SDS011;59655;42.590;23.364;2023-06-14T00:40:55;20.75;;;10.85;;
71806;SDS011;59655;42.590;23.364;2023-06-14T00:43:21;21.65;;;11.48;;
71806;SDS011;59655;42.590;23.364;2023-06-14T00:45:46;18.42;;;9.25;;
71806;SDS011;59655;42.590;23.364;2023-06-14T00:48:11;22.08;;;10.93;;
71806;SDS011;59655;42.590;23.364;2023-06-14T00:50:38;22.27;;;11.55;;
71806;SDS011;59655;42.590;23.364;2023-06-14T00:53:05;25.48;;;11.75;;
71806;SDS011;59655;42.590;23.364;2023-06-14T00:55:32;23.67;;;12.07;;
71806;SDS011;59655;42.590;23.364;2023-06-14T00:57:58;37.13;;;16.33;;
71806;SDS011;59655;42.590;23.364;2023-06-14T01:00:23;29.33;;;13.05;;
71806;SDS011;59655;42.590;23.364;2023-06-14T01:02:49;25.83;;;12.85;;
71806;SDS011;59655;42.590;23.364;2023-06-14T01:05:16;24.38;;;13.57;;
71806;SDS011;59655;42.590;23.364;2023-06-14T01:11:28;20.65;;;11.52;;
71806;SDS011;59655;42.590;23.364;2023-06-14T01:13:40;19.10;;;10.32;;
71806;SDS011;59655;42.590;23.364;2023-06-14T01:16:10;19.83;;;9.98;;
71806;SDS011;59655;42.590;23.364;2023-06-14T01:18:38;18.33;;;10.13;;
71806;SDS011;59655;42.590;23.364;2023-06-14T01:21:04;24.58;;;10.88;;
71806;SDS011;59655;42.590;23.364;2023-06-14T01:23:32;20.15;;;10.60;;
71806;SDS011;59655;42.590;23.364;2023-06-14T01:25:58;25.25;;;12.23;;
71806;SDS011;59655;42.590;23.364;2023-06-14T01:28:25;24.90;;;11.52;;
71806;SDS011;59655;42.590;23.364;2023-06-14T01:30:57;27.25;;;13.68;;
71806;SDS011;59655;42.590;23.364;2023-06-14T01:33:28;27.13;;;13.77;;
71806;SDS011;59655;42.590;23.364;2023-06-14T01:35:54;29.45;;;14.35;;
71806;SDS011;59655;42.590;23.364;2023-06-14T01:38:24;32.00;;;14.90;;
71806;SDS011;59655;42.590;23.364;2023-06-14T01:40:51;32.72;;;14.90;;
71806;SDS011;59655;42.590;23.364;2023-06-14T01:43:20;26.90;;;13.50;;
71806;SDS011;59655;42.590;23.364;2023-06-14T01:45:46;22.95;;;12.00;;
71806;SDS011;59655;42.590;23.364;2023-06-14T01:48:13;22.63;;;11.25;;
71806;SDS011;59655;42.590;23.364;2023-06-14T01:50:39;23.15;;;11.07;;
71806;SDS011;59655;42.590;23.364;2023-06-14T01:53:08;20.85;;;10.13;;
71806;SDS011;59655;42.590;23.364;2023-06-14T01:55:34;17.35;;;10.60;;
71806;SDS011;59655;42.590;23.364;2023-06-14T02:00:28;16.33;;;9.40;;
71806;SDS011;59655;42.590;23.364;2023-06-14T02:02:54;20.65;;;9.95;;
71806;SDS011;59655;42.590;23.364;2023-06-14T02:05:19;20.88;;;10.85;;
71806;SDS011;59655;42.590;23.364;2023-06-14T02:07:45;21.35;;;10.63;;
71806;SDS011;59655;42.590;23.364;2023-06-14T02:10:11;20.38;;;10.32;;
71806;SDS011;59655;42.590;23.364;2023-06-14T02:12:37;21.52;;;10.85;;
71806;SDS011;59655;42.590;23.364;2023-06-14T02:15:02;21.35;;;10.52;;
71806;SDS011;59655;42.590;23.364;2023-06-14T02:17:28;19.63;;;10.27;;
71806;SDS011;59655;42.590;23.364;2023-06-14T02:19:59;19.15;;;10.25;;
71806;SDS011;59655;42.590;23.364;2023-06-14T02:22:25;21.52;;;10.98;;
71806;SDS011;59655;42.590;23.364;2023-06-14T02:24:51;23.33;;;12.05;;
71806;SDS011;59655;42.590;23.364;2023-06-14T02:27:16;24.73;;;11.05;;
71806;SDS011;59655;42.590;23.364;2023-06-14T02:29:42;25.27;;;11.50;;
71806;SDS011;59655;42.590;23.364;2023-06-14T02:32:07;26.27;;;12.55;;
71806;SDS011;59655;42.590;23.364;2023-06-14T02:34:33;21.95;;;12.18;;
71806;SDS011;59655;42.590;23.364;2023-06-14T02:37:02;27.05;;;12.65;;
71806;SDS011;59655;42.590;23.364;2023-06-14T02:39:48;27.17;;;13.02;;
71806;SDS011;59655;42.590;23.364;2023-06-14T02:42:13;26.23;;;13.48;;
71806;SDS011;59655;42.590;23.364;2023-06-14T02:44:39;27.33;;;13.40;;
71806;SDS011;59655;42.590;23.364;2023-06-14T02:47:17;29.92;;;13.88;;
71806;SDS011;59655;42.590;23.364;2023-06-14T02:49:43;29.98;;;13.52;;
71806;SDS011;59655;42.590;23.364;2023-06-14T02:52:11;31.90;;;14.05;;
71806;SDS011;59655;42.590;23.364;2023-06-14T02:54:37;30.45;;;13.65;;
71806;SDS011;59655;42.590;23.364;2023-06-14T02:57:04;38.05;;;14.35;;
71806;SDS011;59655;42.590;23.364;2023-06-14T02:59:32;32.55;;;14.90;;
71806;SDS011;59655;42.590;23.364;2023-06-14T03:01:58;28.83;;;13.38;;
71806;SDS011;59655;42.590;23.364;2023-06-14T03:04:24;32.15;;;12.82;;
71806;SDS011;59655;42.590;23.364;2023-06-14T03:06:53;26.70;;;13.48;;
71806;SDS011;59655;42.590;23.364;2023-06-14T03:09:19;29.63;;;13.10;;
71806;SDS011;59655;42.590;23.364;2023-06-14T03:11:44;29.58;;;13.20;;
71806;SDS011;59655;42.590;23.364;2023-06-14T03:14:10;25.13;;;13.23;;
71806;SDS011;59655;42.590;23.364;2023-06-14T03:16:38;30.15;;;12.75;;
71806;SDS011;59655;42.590;23.364;2023-06-14T03:19:03;27.83;;;13.93;;
71806;SDS011;59655;42.590;23.364;2023-06-14T03:21:32;30.17;;;14.55;;
71806;SDS011;59655;42.590;23.364;2023-06-14T03:23:57;28.95;;;14.20;;
71806;SDS011;59655;42.590;23.364;2023-06-14T03:26:22;27.70;;;13.40;;
71806;SDS011;59655;42.590;23.364;2023-06-14T03:28:48;62.05;;;39.42;;
71806;SDS011;59655;42.590;23.364;2023-06-14T03:31:14;25.38;;;13.40;;
71806;SDS011;59655;42.590;23.364;2023-06-14T03:33:41;31.33;;;16.55;;
71806;SDS011;59655;42.590;23.364;2023-06-14T03:36:06;29.40;;;12.73;;
71806;SDS011;59655;42.590;23.364;2023-06-14T03:38:32;30.70;;;12.20;;
71806;SDS011;59655;42.590;23.364;2023-06-14T03:40:59;26.00;;;11.68;;
71806;SDS011;59655;42.590;23.364;2023-06-14T03:43:25;26.90;;;12.80;;
71806;SDS011;59655;42.590;23.364;2023-06-14T03:45:50;30.60;;;13.95;;
71806;SDS011;59655;42.590;23.364;2023-06-14T03:48:16;67.25;;;20.55;;
71806;SDS011;59655;42.590;23.364;2023-06-14T03:50:41;51.92;;;18.13;;
71806;SDS011;59655;42.590;23.364;2023-06-14T03:53:08;41.33;;;16.50;;
71806;SDS011;59655;42.590;23.364;2023-06-14T03:55:35;34.78;;;15.00;;
71806;SDS011;59655;42.590;23.364;2023-06-14T03:58:01;31.27;;;14.40;;
71806;SDS011;59655;42.590;23.364;2023-06-14T04:00:26;34.63;;;15.38;;
71806;SDS011;59655;42.590;23.364;2023-06-14T04:02:52;34.03;;;15.38;;
71806;SDS011;59655;42.590;23.364;2023-06-14T04:05:18;39.30;;;16.40;;
71806;SDS011;59655;42.590;23.364;2023-06-14T04:07:44;34.15;;;15.73;;
71806;SDS011;59655;42.590;23.364;2023-06-14T04:10:13;32.05;;;15.65;;
71806;SDS011;59655;42.590;23.364;2023-06-14T04:12:40;33.55;;;15.20;;
71806;SDS011;59655;42.590;23.364;2023-06-14T04:15:06;37.95;;;15.07;;
71806;SDS011;59655;42.590;23.364;2023-06-14T04:17:35;28.98;;;14.43;;
71806;SDS011;59655;42.590;23.364;2023-06-14T04:20:02;27.15;;;12.70;;
71806;SDS011;59655;42.590;23.364;2023-06-14T04:22:32;28.05;;;14.52;;
71806;SDS011;59655;42.590;23.364;2023-06-14T04:25:00;28.52;;;13.27;;
71806;SDS011;59655;42.590;23.364;2023-06-14T04:27:26;32.58;;;14.60;;
71806;SDS011;59655;42.590;23.364;2023-06-14T04:29:53;30.67;;;14.25;;
71806;SDS011;59655;42.590;23.364;2023-06-14T04:32:28;28.95;;;14.35;;
71806;SDS011;59655;42.590;23.364;2023-06-14T04:35:03;33.63;;;15.05;;
71806;SDS011;59655;42.590;23.364;2023-06-14T04:37:29;39.63;;;16.35;;
71806;SDS011;59655;42.590;23.364;2023-06-14T04:39:55;33.80;;;15.60;;
71806;SDS011;59655;42.590;23.364;2023-06-14T04:42:22;37.00;;;16.38;;
71806;SDS011;59655;42.590;23.364;2023-06-14T04:44:50;35.42;;;15.55;;
71806;SDS011;59655;42.590;23.364;2023-06-14T04:47:16;38.60;;;15.02;;
71806;SDS011;59655;42.590;23.364;2023-06-14T04:49:42;34.45;;;15.90;;
71806;SDS011;59655;42.590;23.364;2023-06-14T04:52:07;38.30;;;17.35;;
71806;SDS011;59655;42.590;23.364;2023-06-14T04:54:35;34.88;;;16.02;;
71806;SDS011;59655;42.590;23.364;2023-06-14T04:57:06;34.65;;;15.32;;
71806;SDS011;59655;42.590;23.364;2023-06-14T04:59:31;37.47;;;17.00;;
71806;SDS011;59655;42.590;23.364;2023-06-14T05:02:00;45.25;;;17.88;;
71806;SDS011;59655;42.590;23.364;2023-06-14T05:04:26;37.63;;;16.48;;
71806;SDS011;59655;42.590;23.364;2023-06-14T05:06:53;36.95;;;16.35;;
71806;SDS011;59655;42.590;23.364;2023-06-14T05:09:19;42.17;;;17.20;;
71806;SDS011;59655;42.590;23.364;2023-06-14T05:11:46;40.60;;;17.13;;
71806;SDS011;59655;42.590;23.364;2023-06-14T05:14:12;35.25;;;17.00;;
71806;SDS011;59655;42.590;23.364;2023-06-14T05:16:39;35.10;;;16.00;;
71806;SDS011;59655;42.590;23.364;2023-06-14T05:19:05;34.78;;;15.25;;
71806;SDS011;59655;42.590;23.364;2023-06-14T05:21:31;35.85;;;15.23;;
71806;SDS011;59655;42.590;23.364;2023-06-14T05:23:59;39.50;;;16.48;;
71806;SDS011;59655;42.590;23.364;2023-06-14T05:26:25;28.20;;;14.27;;
71806;SDS011;59655;42.590;23.364;2023-06-14T05:28:57;34.97;;;14.85;;
71806;SDS011;59655;42.590;23.364;2023-06-14T05:31:32;28.52;;;13.73;;
71806;SDS011;59655;42.590;23.364;2023-06-14T05:33:58;30.15;;;13.88;;
71806;SDS011;59655;42.590;23.364;2023-06-14T05:36:23;37.53;;;14.57;;
71806;SDS011;59655;42.590;23.364;2023-06-14T05:38:49;35.08;;;17.80;;
71806;SDS011;59655;42.590;23.364;2023-06-14T05:41:16;33.60;;;16.20;;
71806;SDS011;59655;42.590;23.364;2023-06-14T05:43:41;35.50;;;16.65;;
71806;SDS011;59655;42.590;23.364;2023-06-14T05:46:07;38.08;;;17.05;;
71806;SDS011;59655;42.590;23.364;2023-06-14T05:48:32;42.20;;;18.30;;
71806;SDS011;59655;42.590;23.364;2023-06-14T05:50:58;42.95;;;19.42;;
71806;SDS011;59655;42.590;23.364;2023-06-14T05:53:25;48.80;;;19.58;;
71806;SDS011;59655;42.590;23.364;2023-06-14T05:55:51;45.67;;;19.52;;
71806;SDS011;59655;42.590;23.364;2023-06-14T05:58:20;49.63;;;21.40;;
71806;SDS011;59655;42.590;23.364;2023-06-14T06:00:46;48.10;;;19.55;;
71806;SDS011;59655;42.590;23.364;2023-06-14T06:03:11;46.63;;;19.35;;
71806;SDS011;59655;42.590;23.364;2023-06-14T06:05:38;45.42;;;19.48;;
71806;SDS011;59655;42.590;23.364;2023-06-14T06:08:03;53.47;;;21.00;;
71806;SDS011;59655;42.590;23.364;2023-06-14T06:10:29;50.13;;;19.92;;
71806;SDS011;59655;42.590;23.364;2023-06-14T06:12:54;52.03;;;20.13;;
71806;SDS011;59655;42.590;23.364;2023-06-14T06:15:20;53.25;;;21.08;;
71806;SDS011;59655;42.590;23.364;2023-06-14T06:17:45;54.08;;;19.88;;
71806;SDS011;59655;42.590;23.364;2023-06-14T06:20:11;54.25;;;21.25;;
71806;SDS011;59655;42.590;23.364;2023-06-14T06:22:37;54.85;;;22.55;;
71806;SDS011;59655;42.590;23.364;2023-06-14T06:25:03;50.72;;;20.13;;
71806;SDS011;59655;42.590;23.364;2023-06-14T06:27:29;49.60;;;20.90;;
71806;SDS011;59655;42.590;23.364;2023-06-14T06:29:54;55.95;;;22.48;;
71806;SDS011;59655;42.590;23.364;2023-06-14T06:32:20;52.78;;;23.88;;
71806;SDS011;59655;42.590;23.364;2023-06-14T06:34:46;52.53;;;21.17;;
71806;SDS011;59655;42.590;23.364;2023-06-14T06:37:11;53.45;;;22.85;;
71806;SDS011;59655;42.590;23.364;2023-06-14T06:39:37;55.95;;;22.90;;
71806;SDS011;59655;42.590;23.364;2023-06-14T06:42:03;51.72;;;22.30;;
71806;SDS011;59655;42.590;23.364;2023-06-14T06:44:28;55.47;;;23.17;;
71806;SDS011;59655;42.590;23.364;2023-06-14T06:46:54;58.15;;;24.77;;
71806;SDS011;59655;42.590;23.364;2023-06-14T06:49:22;59.90;;;23.83;;
71806;SDS011;59655;42.590;23.364;2023-06-14T06:52:00;59.70;;;24.27;;
71806;SDS011;59655;42.590;23.364;2023-06-14T06:54:27;62.30;;;23.23;;
71806;SDS011;59655;42.590;23.364;2023-06-14T06:56:52;69.63;;;23.63;;
71806;SDS011;59655;42.590;23.364;2023-06-14T06:59:18;70.03;;;25.30;;
71806;SDS011;59655;42.590;23.364;2023-06-14T07:01:43;74.13;;;25.85;;
71806;SDS011;59655;42.590;23.364;2023-06-14T07:04:08;59.95;;;23.90;;
71806;SDS011;59655;42.590;23.364;2023-06-14T07:06:34;62.10;;;24.10;;
71806;SDS011;59655;42.590;23.364;2023-06-14T07:09:00;67.32;;;24.58;;
71806;SDS011;59655;42.590;23.364;2023-06-14T07:11:29;52.70;;;24.38;;
71806;SDS011;59655;42.590;23.364;2023-06-14T07:13:55;51.63;;;22.55;;
71806;SDS011;59655;42.590;23.364;2023-06-14T07:16:20;55.30;;;21.30;;
71806;SDS011;59655;42.590;23.364;2023-06-14T07:18:46;55.33;;;23.58;;
71806;SDS011;59655;42.590;23.364;2023-06-14T07:21:12;50.13;;;22.23;;
71806;SDS011;59655;42.590;23.364;2023-06-14T07:23:37;56.80;;;22.92;;
71806;SDS011;59655;42.590;23.364;2023-06-14T07:26:02;54.53;;;22.67;;
71806;SDS011;59655;42.590;23.364;2023-06-14T07:28:28;52.28;;;23.13;;
71806;SDS011;59655;42.590;23.364;2023-06-14T07:30:53;53.38;;;21.55;;
71806;SDS011;59655;42.590;23.364;2023-06-14T07:33:18;55.15;;;22.63;;
71806;SDS011;59655;42.590;23.364;2023-06-14T07:35:44;55.50;;;23.42;;
71806;SDS011;59655;42.590;23.364;2023-06-14T07:38:11;52.83;;;23.30;;
71806;SDS011;59655;42.590;23.364;2023-06-14T07:40:36;54.80;;;23.85;;
71806;SDS011;59655;42.590;23.364;2023-06-14T07:43:01;51.03;;;21.73;;
71806;SDS011;59655;42.590;23.364;2023-06-14T07:45:27;51.97;;;23.05;;
71806;SDS011;59655;42.590;23.364;2023-06-14T07:47:52;52.80;;;21.88;;
71806;SDS011;59655;42.590;23.364;2023-06-14T07:50:18;54.33;;;22.95;;
71806;SDS011;59655;42.590;23.364;2023-06-14T07:52:43;54.60;;;21.67;;
71806;SDS011;59655;42.590;23.364;2023-06-14T07:55:10;54.55;;;22.98;;
71806;SDS011;59655;42.590;23.364;2023-06-14T07:57:35;46.05;;;21.13;;
71806;SDS011;59655;42.590;23.364;2023-06-14T08:00:02;51.38;;;21.23;;
71806;SDS011;59655;42.590;23.364;2023-06-14T08:02:31;46.45;;;21.08;;
71806;SDS011;59655;42.590;23.364;2023-06-14T08:04:56;50.90;;;21.70;;
71806;SDS011;59655;42.590;23.364;2023-06-14T08:07:22;49.55;;;22.20;;
71806;SDS011;59655;42.590;23.364;2023-06-14T08:09:47;54.65;;;22.33;;
71806;SDS011;59655;42.590;23.364;2023-06-14T08:12:13;55.50;;;22.65;;
71806;SDS011;59655;42.590;23.364;2023-06-14T08:14:39;58.17;;;26.45;;
71806;SDS011;59655;42.590;23.364;2023-06-14T08:31:55;58.08;;;25.98;;
71806;SDS011;59655;42.590;23.364;2023-06-14T08:34:21;48.00;;;23.88;;
71806;SDS011;59655;42.590;23.364;2023-06-14T08:36:48;52.75;;;26.25;;
71806;SDS011;59655;42.590;23.364;2023-06-14T08:39:16;53.53;;;25.20;;
71806;SDS011;59655;42.590;23.364;2023-06-14T08:41:42;46.92;;;23.05;;
71806;SDS011;59655;42.590;23.364;2023-06-14T08:44:11;45.85;;;22.30;;
71806;SDS011;59655;42.590;23.364;2023-06-14T08:46:37;51.58;;;22.98;;
71806;SDS011;59655;42.590;23.364;2023-06-14T08:49:02;50.67;;;25.63;;
71806;SDS011;59655;42.590;23.364;2023-06-14T08:51:31;50.53;;;24.55;;
71806;SDS011;59655;42.590;23.364;2023-06-14T08:54:01;49.15;;;22.75;;
71806;SDS011;59655;42.590;23.364;2023-06-14T08:56:29;51.08;;;23.08;;
71806;SDS011;59655;42.590;23.364;2023-06-14T08:58:56;48.92;;;23.58;;
71806;SDS011;59655;42.590;23.364;2023-06-14T09:01:26;52.30;;;23.20;;
71806;SDS011;59655;42.590;23.364;2023-06-14T09:03:52;47.40;;;23.13;;
71806;SDS011;59655;42.590;23.364;2023-06-14T09:06:19;51.90;;;22.77;;
71806;SDS011;59655;42.590;23.364;2023-06-14T09:08:47;47.35;;;23.00;;
71806;SDS011;59655;42.590;23.364;2023-06-14T09:11:14;48.92;;;23.75;;
71806;SDS011;59655;42.590;23.364;2023-06-14T09:13:43;50.55;;;22.17;;
71806;SDS011;59655;42.590;23.364;2023-06-14T09:16:09;49.75;;;22.73;;
71806;SDS011;59655;42.590;23.364;2023-06-14T09:18:39;49.53;;;22.25;;
71806;SDS011;59655;42.590;23.364;2023-06-14T09:21:08;48.83;;;23.33;;
71806;SDS011;59655;42.590;23.364;2023-06-14T09:23:37;49.25;;;23.75;;
71806;SDS011;59655;42.590;23.364;2023-06-14T09:26:14;51.70;;;24.75;;
71806;SDS011;59655;42.590;23.364;2023-06-14T09:28:44;51.22;;;24.10;;
71806;SDS011;59655;42.590;23.364;2023-06-14T09:31:11;53.30;;;23.45;;
71806;SDS011;59655;42.590;23.364;2023-06-14T09:33:48;53.63;;;24.00;;
71806;SDS011;59655;42.590;23.364;2023-06-14T09:36:15;50.28;;;23.58;;
71806;SDS011;59655;42.590;23.364;2023-06-14T09:38:43;52.25;;;23.67;;
71806;SDS011;59655;42.590;23.364;2023-06-14T09:41:17;49.17;;;23.38;;
71806;SDS011;59655;42.590;23.364;2023-06-14T09:43:43;50.75;;;24.10;;
71806;SDS011;59655;42.590;23.364;2023-06-14T09:46:10;55.20;;;25.40;;
71806;SDS011;59655;42.590;23.364;2023-06-14T09:48:36;51.88;;;23.70;;
71806;SDS011;59655;42.590;23.364;2023-06-14T09:51:01;52.83;;;23.58;;
71806;SDS011;59655;42.590;23.364;2023-06-14T09:53:29;53.00;;;24.83;;
71806;SDS011;59655;42.590;23.364;2023-06-14T09:55:55;47.35;;;21.88;;
71806;SDS011;59655;42.590;23.364;2023-06-14T09:58:23;50.08;;;23.15;;
71806;SDS011;59655;42.590;23.364;2023-06-14T10:00:51;51.08;;;22.85;;
71806;SDS011;59655;42.590;23.364;2023-06-14T10:05:47;51.17;;;22.25;;
71806;SDS011;59655;42.590;23.364;2023-06-14T10:08:19;48.35;;;22.15;;
71806;SDS011;59655;42.590;23.364;2023-06-14T10:10:47;49.25;;;21.95;;
71806;SDS011;59655;42.590;23.364;2023-06-14T10:13:13;53.20;;;23.88;;
71806;SDS011;59655;42.590;23.364;2023-06-14T10:18:11;49.33;;;23.38;;
71806;SDS011;59655;42.590;23.364;2023-06-14T10:23:35;51.45;;;23.90;;
71806;SDS011;59655;42.590;23.364;2023-06-14T10:26:04;52.08;;;23.30;;
71806;SDS011;59655;42.590;23.364;2023-06-14T10:28:29;54.33;;;24.17;;
71806;SDS011;59655;42.590;23.364;2023-06-14T10:31:04;51.85;;;23.33;;
71806;SDS011;59655;42.590;23.364;2023-06-14T10:33:31;47.08;;;21.38;;
71806;SDS011;59655;42.590;23.364;2023-06-14T10:38:57;42.63;;;20.85;;
71806;SDS011;59655;42.590;23.364;2023-06-14T10:41:26;40.65;;;18.85;;
71806;SDS011;59655;42.590;23.364;2023-06-14T10:46:37;34.92;;;18.52;;
71806;SDS011;59655;42.590;23.364;2023-06-14T10:49:02;35.92;;;17.70;;
71806;SDS011;59655;42.590;23.364;2023-06-14T10:51:53;43.40;;;20.23;;
71806;SDS011;59655;42.590;23.364;2023-06-14T10:54:21;45.38;;;21.10;;
71806;SDS011;59655;42.590;23.364;2023-06-14T10:56:47;40.83;;;19.60;;
71806;SDS011;59655;42.590;23.364;2023-06-14T10:59:14;39.97;;;19.70;;
71806;SDS011;59655;42.590;23.364;2023-06-14T11:01:46;41.30;;;20.27;;
71806;SDS011;59655;42.590;23.364;2023-06-14T11:04:23;37.10;;;18.58;;
71806;SDS011;59655;42.590;23.364;2023-06-14T11:07:34;39.75;;;19.00;;
71806;SDS011;59655;42.590;23.364;2023-06-14T11:13:04;34.88;;;17.48;;
71806;SDS011;59655;42.590;23.364;2023-06-14T11:15:31;38.20;;;19.10;;
71806;SDS011;59655;42.590;23.364;2023-06-14T11:17:57;35.88;;;18.95;;
71806;SDS011;59655;42.590;23.364;2023-06-14T11:20:25;33.22;;;18.13;;
71806;SDS011;59655;42.590;23.364;2023-06-14T11:22:52;35.70;;;18.15;;
71806;SDS011;59655;42.590;23.364;2023-06-14T11:25:18;31.58;;;16.58;;
71806;SDS011;59655;42.590;23.364;2023-06-14T11:27:44;36.13;;;17.98;;
71806;SDS011;59655;42.590;23.364;2023-06-14T11:30:11;41.30;;;18.58;;
71806;SDS011;59655;42.590;23.364;2023-06-14T11:32:39;35.72;;;18.58;;
71806;SDS011;59655;42.590;23.364;2023-06-14T11:35:06;34.60;;;17.55;;
71806;SDS011;59655;42.590;23.364;2023-06-14T11:37:32;33.35;;;17.15;;
71806;SDS011;59655;42.590;23.364;2023-06-14T11:40:00;31.88;;;16.33;;
71806;SDS011;59655;42.590;23.364;2023-06-14T11:44:54;35.90;;;16.17;;
71806;SDS011;59655;42.590;23.364;2023-06-14T11:47:20;37.22;;;16.25;;
71806;SDS011;59655;42.590;23.364;2023-06-14T11:49:46;30.83;;;15.65;;
71806;SDS011;59655;42.590;23.364;2023-06-14T11:52:12;34.03;;;15.90;;
71806;SDS011;59655;42.590;23.364;2023-06-14T11:54:38;30.73;;;15.23;;
71806;SDS011;59655;42.590;23.364;2023-06-14T11:57:05;32.97;;;16.20;;
71806;SDS011;59655;42.590;23.364;2023-06-14T11:59:32;33.58;;;16.17;;
71806;SDS011;59655;42.590;23.364;2023-06-14T12:02:03;28.98;;;15.80;;
71806;SDS011;59655;42.590;23.364;2023-06-14T12:04:29;28.25;;;15.52;;
71806;SDS011;59655;42.590;23.364;2023-06-14T12:06:55;26.65;;;14.80;;
71806;SDS011;59655;42.590;23.364;2023-06-14T12:09:22;28.33;;;14.93;;
71806;SDS011;59655;42.590;23.364;2023-06-14T12:11:48;27.85;;;15.07;;
71806;SDS011;59655;42.590;23.364;2023-06-14T12:14:15;26.20;;;14.70;;
71806;SDS011;59655;42.590;23.364;2023-06-14T12:16:41;27.52;;;14.77;;
71806;SDS011;59655;42.590;23.364;2023-06-14T12:19:08;39.10;;;17.42;;
71806;SDS011;59655;42.590;23.364;2023-06-14T12:21:37;32.55;;;15.93;;
71806;SDS011;59655;42.590;23.364;2023-06-14T12:24:06;35.50;;;16.30;;
71806;SDS011;59655;42.590;23.364;2023-06-14T12:26:33;29.90;;;15.00;;
71806;SDS011;59655;42.590;23.364;2023-06-14T12:28:58;29.67;;;14.60;;
71806;SDS011;59655;42.590;23.364;2023-06-14T12:31:24;27.33;;;14.57;;
71806;SDS011;59655;42.590;23.364;2023-06-14T12:33:51;30.17;;;14.52;;
71806;SDS011;59655;42.590;23.364;2023-06-14T12:36:17;26.85;;;15.05;;
71806;SDS011;59655;42.590;23.364;2023-06-14T12:38:42;29.02;;;15.68;;
71806;SDS011;59655;42.590;23.364;2023-06-14T12:41:08;30.65;;;15.48;;
71806;SDS011;59655;42.590;23.364;2023-06-14T12:43:34;27.48;;;13.98;;
71806;SDS011;59655;42.590;23.364;2023-06-14T12:45:59;23.88;;;14.02;;
71806;SDS011;59655;42.590;23.364;2023-06-14T12:48:25;23.58;;;12.95;;
71806;SDS011;59655;42.590;23.364;2023-06-14T12:50:56;25.17;;;13.60;;
71806;SDS011;59655;42.590;23.364;2023-06-14T12:53:21;27.98;;;13.40;;
71806;SDS011;59655;42.590;23.364;2023-06-14T12:55:48;26.63;;;13.95;;
71806;SDS011;59655;42.590;23.364;2023-06-14T12:58:13;31.08;;;14.60;;
71806;SDS011;59655;42.590;23.364;2023-06-14T13:00:39;30.27;;;15.27;;
71806;SDS011;59655;42.590;23.364;2023-06-14T13:03:05;27.98;;;15.00;;
71806;SDS011;59655;42.590;23.364;2023-06-14T13:05:31;27.67;;;14.43;;
71806;SDS011;59655;42.590;23.364;2023-06-14T13:07:58;32.40;;;14.32;;
71806;SDS011;59655;42.590;23.364;2023-06-14T13:10:24;27.05;;;13.50;;
71806;SDS011;59655;42.590;23.364;2023-06-14T13:12:52;28.98;;;14.32;;
71806;SDS011;59655;42.590;23.364;2023-06-14T13:15:17;31.02;;;15.93;;
71806;SDS011;59655;42.590;23.364;2023-06-14T13:17:43;29.02;;;14.43;;
71806;SDS011;59655;42.590;23.364;2023-06-14T13:20:13;31.60;;;15.52;;
71806;SDS011;59655;42.590;23.364;2023-06-14T13:22:40;34.75;;;14.75;;
71806;SDS011;59655;42.590;23.364;2023-06-14T13:25:06;27.90;;;13.77;;
71806;SDS011;59655;42.590;23.364;2023-06-14T13:27:32;26.30;;;13.85;;
71806;SDS011;59655;42.590;23.364;2023-06-14T13:29:57;28.48;;;15.15;;
71806;SDS011;59655;42.590;23.364;2023-06-14T13:32:23;33.65;;;15.18;;
71806;SDS011;59655;42.590;23.364;2023-06-14T13:34:48;32.63;;;15.65;;
71806;SDS011;59655;42.590;23.364;2023-06-14T13:37:14;30.55;;;14.18;;
71806;SDS011;59655;42.590;23.364;2023-06-14T13:39:40;27.58;;;14.60;;
71806;SDS011;59655;42.590;23.364;2023-06-14T13:42:06;28.17;;;14.55;;
71806;SDS011;59655;42.590;23.364;2023-06-14T13:44:31;23.63;;;12.75;;
71806;SDS011;59655;42.590;23.364;2023-06-14T13:46:57;25.63;;;14.43;;
71806;SDS011;59655;42.590;23.364;2023-06-14T13:49:22;26.20;;;13.85;;
71806;SDS011;59655;42.590;23.364;2023-06-14T13:51:48;23.35;;;12.30;;
71806;SDS011;59655;42.590;23.364;2023-06-14T13:54:13;26.33;;;12.52;;
71806;SDS011;59655;42.590;23.364;2023-06-14T13:56:42;34.95;;;15.60;;
71806;SDS011;59655;42.590;23.364;2023-06-14T13:59:07;34.60;;;16.77;;
71806;SDS011;59655;42.590;23.364;2023-06-14T14:01:33;31.65;;;15.63;;
71806;SDS011;59655;42.590;23.364;2023-06-14T14:03:58;34.15;;;15.73;;
71806;SDS011;59655;42.590;23.364;2023-06-14T14:06:25;29.85;;;15.52;;
71806;SDS011;59655;42.590;23.364;2023-06-14T14:08:51;27.02;;;13.15;;
71806;SDS011;59655;42.590;23.364;2023-06-14T14:11:17;27.85;;;15.13;;
71806;SDS011;59655;42.590;23.364;2023-06-14T14:13:43;31.85;;;15.40;;
71806;SDS011;59655;42.590;23.364;2023-06-14T14:16:09;22.15;;;12.38;;
71806;SDS011;59655;42.590;23.364;2023-06-14T14:18:35;27.15;;;13.13;;
71806;SDS011;59655;42.590;23.364;2023-06-14T14:21:02;23.48;;;13.88;;
71806;SDS011;59655;42.590;23.364;2023-06-14T14:23:27;24.33;;;13.07;;
71806;SDS011;59655;42.590;23.364;2023-06-14T14:25:53;22.98;;;13.10;;
71806;SDS011;59655;42.590;23.364;2023-06-14T14:28:19;22.05;;;13.25;;
71806;SDS011;59655;42.590;23.364;2023-06-14T14:30:45;23.95;;;11.40;;
71806;SDS011;59655;42.590;23.364;2023-06-14T14:33:12;23.17;;;11.98;;
71806;SDS011;59655;42.590;23.364;2023-06-14T14:35:43;30.67;;;14.57;;
71806;SDS011;59655;42.590;23.364;2023-06-14T14:38:11;25.30;;;14.00;;
71806;SDS011;59655;42.590;23.364;2023-06-14T14:40:37;27.45;;;14.00;;
71806;SDS011;59655;42.590;23.364;2023-06-14T14:43:02;24.77;;;12.75;;
71806;SDS011;59655;42.590;23.364;2023-06-14T14:45:28;30.60;;;12.50;;
71806;SDS011;59655;42.590;23.364;2023-06-14T14:47:53;25.10;;;12.65;;